• Join FlightAware (Why Join?)
  • Login
  • US Flag 
05:46AM EDT


 

Airport Tracker/Info


-or-


 

Live Flight TrackerFlight Track Log ✈ RSCU21 ✈ 22-Jul-2013 ✈ YRPA - YSBK / BWU

Flight Track Log - Related Links

Times and Time Zones

All times are in EDT time to prevent confusion due to time zone crossing. See the RSCU21 flight status page for this flight to view local times or setup timezone preferences in your user account.

Time Position Orientation Groundspeed Altitude Reporting Facility
EDT Latitude Longitude Course Direction KTS MPH feet Rate Location/Type
01:11PM -33.8923 151.1610 258° West 62 71 1,600  Level Aus ATC (RADAR)
01:12PM -33.8991 151.1237 258° West 97 112 1,500 -60 Descending Aus ATC (RADAR)
01:13PM -33.9050 151.0924 257° West 102 117 1,500  Level Aus ATC (RADAR)
01:15PM -33.9147 151.0404 257° West -720 Descending Aus ATC (Calculated)
01:17PM -33.9165 151.0307 257° West  Level FlightAware Approximate
01:18PM -33.9183 151.0214 257° West  Level FlightAware Approximate
01:19PM -33.9200 151.0120 257° West  Level FlightAware Approximate
01:20PM -33.9217 151.0027 257° West  Level FlightAware Approximate
01:21PM -33.9235 150.9933 257° West  Level FlightAware Approximate
01:22PM -33.9252 150.9840 257° West  Level FlightAware Approximate
01:23PM -33.9235 150.9933 77° East  Level FlightAware Approximate
01:24PM -33.9252 150.9840 257° West  Level FlightAware Approximate
01:25PM -33.9235 150.9933 77° East  Level FlightAware Approximate
01:26PM -33.9252 150.9840 257° West  Level FlightAware Approximate
01:27PM -33.9235 150.9933 77° East  Level FlightAware Approximate
01:28PM -33.9244 150.9884 258° West  Level FlightAware Approximate
01:29PM -33.9244 150.9883 258° West  Level Estimated
01:30PM -33.9244 150.9883 258° West  Level Estimated
01:31PM -33.9244 150.9883 258° West  Level Estimated
01:32PM -33.9244 150.9883 258° West  Level Estimated
01:33PM -33.9244 150.9883 258° West  Level Estimated
01:34PM -33.9244 150.9883 258° West  Level Estimated
01:35PM -33.9244 150.9883 258° West  Level Estimated
01:36PM -33.9244 150.9883 258° West  Level Estimated
01:37PM -33.9244 150.9883 258° West  Level Estimated
01:38PM -33.9244 150.9883 258° West  Level Estimated
01:39PM -33.9244 150.9883 258° West  Level Estimated
01:40PM -33.9244 150.9883 258° West  Level Estimated
01:41PM -33.9244 150.9883 258° West  Level Estimated
01:42PM -33.9244 150.9883 258° West  Level Estimated
01:43PM -33.9244 150.9883 258° West  Level Estimated
01:44PM -33.9244 150.9883 258° West  Level Estimated
01:45PM -33.9244 150.9883 258° West  Level Estimated
01:46PM -33.9244 150.9883 258° West  Level Estimated